createdAt,value
2023-03-27T00:01:31.691Z,1.10
2023-03-27T00:04:02.149Z,1.23
2023-03-27T00:06:34.559Z,0.98
2023-03-27T00:09:07.859Z,1.05
2023-03-27T00:11:37.002Z,1.13
2023-03-27T00:14:06.100Z,1.00
2023-03-27T00:16:35.789Z,0.77
2023-03-27T00:19:06.273Z,1.30
2023-03-27T00:21:35.343Z,0.70
2023-03-27T00:24:04.400Z,0.90
2023-03-27T00:26:33.398Z,0.75
2023-03-27T00:29:02.661Z,0.75
2023-03-27T00:31:31.921Z,0.57
2023-03-27T00:34:01.443Z,1.05
2023-03-27T00:36:31.792Z,0.93
2023-03-27T00:39:00.785Z,0.80
2023-03-27T00:41:29.802Z,1.20
2023-03-27T00:43:59.036Z,1.20
2023-03-27T00:46:31.651Z,0.60
2023-03-27T00:49:03.843Z,0.80
2023-03-27T00:51:37.847Z,0.80
2023-03-27T00:54:07.283Z,0.68
2023-03-27T00:56:38.548Z,0.98
2023-03-27T00:59:10.811Z,0.70
2023-03-27T01:01:40.824Z,0.50
2023-03-27T01:04:10.661Z,0.60
2023-03-27T01:06:42.273Z,0.80
2023-03-27T01:11:43.765Z,0.80
2023-03-27T01:14:17.555Z,0.80
2023-03-27T01:16:52.015Z,1.50
2023-03-27T01:19:38.244Z,0.70
2023-03-27T01:22:22.519Z,1.10
2023-03-27T01:25:10.564Z,0.85
2023-03-27T01:28:03.640Z,1.73
2023-03-27T01:30:36.482Z,0.63
2023-03-27T01:33:36.367Z,0.60
2023-03-27T01:36:15.747Z,1.48
2023-03-27T01:39:05.444Z,0.75
2023-03-27T01:41:37.387Z,1.08
2023-03-27T01:44:10.619Z,0.90
2023-03-27T01:46:44.428Z,1.48
2023-03-27T01:49:15.402Z,0.90
2023-03-27T01:51:47.194Z,0.73
2023-03-27T01:54:21.831Z,0.70
2023-03-27T01:56:53.851Z,0.63
2023-03-27T01:59:28.314Z,0.55
2023-03-27T02:02:01.032Z,1.08
2023-03-27T02:04:32.675Z,0.57
2023-03-27T02:09:34.440Z,1.90
2023-03-27T02:12:05.963Z,0.80
2023-03-27T02:14:38.013Z,0.80
2023-03-27T02:17:13.062Z,0.93
2023-03-27T02:19:47.420Z,0.50
2023-03-27T02:22:17.222Z,0.70
2023-03-27T02:24:57.351Z,2.38
2023-03-27T02:27:31.480Z,1.25
2023-03-27T02:30:05.658Z,0.80
2023-03-27T02:32:41.737Z,0.90
2023-03-27T02:35:20.388Z,0.80
2023-03-27T02:37:54.871Z,1.40
2023-03-27T02:41:05.044Z,1.40
2023-03-27T02:43:56.249Z,1.25
2023-03-27T02:46:53.952Z,1.33
2023-03-27T02:49:26.411Z,0.90
2023-03-27T02:51:58.878Z,0.80
2023-03-27T02:54:29.409Z,1.23
2023-03-27T02:57:02.096Z,1.23
2023-03-27T02:59:47.232Z,0.85
2023-03-27T03:02:19.823Z,0.70
2023-03-27T03:05:00.063Z,1.58
2023-03-27T03:07:38.257Z,1.05
2023-03-27T03:10:09.804Z,1.42
2023-03-27T03:12:40.417Z,0.98
2023-03-27T03:15:10.584Z,1.08
2023-03-27T03:17:39.735Z,0.75
2023-03-27T03:20:10.465Z,1.45
2023-03-27T03:22:40.335Z,1.20
2023-03-27T03:25:10.715Z,3.33
2023-03-27T03:27:41.451Z,1.58
2023-03-27T03:30:16.882Z,1.48
2023-03-27T03:33:19.874Z,0.82
2023-03-27T03:35:49.582Z,1.70
2023-03-27T03:38:38.137Z,0.80
2023-03-27T03:41:13.961Z,0.90
2023-03-27T03:43:44.695Z,1.33
2023-03-27T03:46:13.841Z,1.00
2023-03-27T03:48:43.210Z,0.73
2023-03-27T03:51:12.788Z,1.00
2023-03-27T03:53:42.053Z,0.77
2023-03-27T03:56:11.340Z,1.10
2023-03-27T03:58:40.523Z,0.90
2023-03-27T04:01:11.492Z,1.00
2023-03-27T04:03:50.612Z,0.80
2023-03-27T04:06:21.229Z,1.95
2023-03-27T04:08:50.935Z,1.20
2023-03-27T04:11:52.163Z,1.50
2023-03-27T04:14:41.149Z,0.77
2023-03-27T04:17:33.409Z,2.20
2023-03-27T04:20:05.896Z,0.90
2023-03-27T04:22:38.116Z,0.80
2023-03-27T04:25:11.136Z,0.90
2023-03-27T04:27:40.493Z,0.90
2023-03-27T04:30:17.674Z,0.93
2023-03-27T04:33:20.468Z,0.70
2023-03-27T04:36:16.175Z,1.23
2023-03-27T04:38:56.256Z,0.82
2023-03-27T04:41:29.550Z,0.93
2023-03-27T04:43:58.865Z,0.95
2023-03-27T04:46:27.967Z,0.80
2023-03-27T04:49:04.842Z,1.33
2023-03-27T04:51:46.280Z,1.08
2023-03-27T04:54:15.821Z,0.90
2023-03-27T04:56:47.494Z,1.23
2023-03-27T04:59:16.590Z,0.80
2023-03-27T05:01:51.487Z,1.23
2023-03-27T05:04:45.624Z,0.88
2023-03-27T05:07:21.358Z,1.20
2023-03-27T05:09:50.866Z,0.93
2023-03-27T05:12:19.835Z,0.90
2023-03-27T05:14:55.699Z,0.73
2023-03-27T05:17:35.871Z,1.15
2023-03-27T05:20:08.186Z,1.00
2023-03-27T05:22:38.070Z,1.25
2023-03-27T05:25:18.882Z,1.20
2023-03-27T05:27:48.813Z,0.68
2023-03-27T05:30:19.311Z,1.15
2023-03-27T05:35:29.055Z,1.13
2023-03-27T05:38:00.525Z,1.05
2023-03-27T05:40:37.548Z,0.98
2023-03-27T05:43:08.325Z,0.90
2023-03-27T05:45:38.201Z,0.98
2023-03-27T05:48:08.296Z,0.70
2023-03-27T05:50:43.866Z,0.73
2023-03-27T05:53:27.932Z,0.90
2023-03-27T05:56:15.821Z,0.88
2023-03-27T05:59:00.405Z,1.10
2023-03-27T06:01:30.986Z,0.68
2023-03-27T06:04:01.822Z,1.55
2023-03-27T06:06:38.089Z,0.63
2023-03-27T06:09:07.846Z,1.27
2023-03-27T06:11:37.983Z,0.75
2023-03-27T06:14:07.329Z,0.60
2023-03-27T06:17:06.501Z,1.02
2023-03-27T06:19:45.019Z,0.82
2023-03-27T06:22:15.414Z,0.98
2023-03-27T06:24:46.477Z,1.27
2023-03-27T06:27:20.544Z,1.00
2023-03-27T06:29:49.730Z,1.17
2023-03-27T06:32:19.342Z,1.00
2023-03-27T06:34:53.492Z,1.25
2023-03-27T06:37:45.865Z,0.70
2023-03-27T06:40:22.857Z,0.93
2023-03-27T06:42:54.411Z,0.70
2023-03-27T06:45:32.435Z,2.20
2023-03-27T06:48:22.308Z,1.10
2023-03-27T06:50:56.244Z,0.70
2023-03-27T06:53:28.551Z,2.00
2023-03-27T06:55:58.770Z,1.20
2023-03-27T06:58:30.799Z,1.02
2023-03-27T07:00:59.851Z,0.90
2023-03-27T07:03:51.296Z,2.08
2023-03-27T07:06:40.784Z,0.93
2023-03-27T07:09:14.644Z,1.00
2023-03-27T07:11:52.710Z,0.95
2023-03-27T07:14:21.788Z,0.98
2023-03-27T07:16:50.830Z,1.35
2023-03-27T07:19:20.218Z,0.90
2023-03-27T07:21:59.500Z,1.30
2023-03-27T07:24:30.045Z,0.68
2023-03-27T07:26:59.504Z,0.60
2023-03-27T07:29:36.378Z,1.08
2023-03-27T07:32:08.806Z,0.82
2023-03-27T07:34:42.659Z,0.98
2023-03-27T07:37:35.980Z,1.08
2023-03-27T07:40:44.341Z,0.80
2023-03-27T07:43:32.169Z,0.68
2023-03-27T07:46:03.449Z,1.27
2023-03-27T07:48:35.962Z,1.15
2023-03-27T07:51:13.787Z,0.80
2023-03-27T07:53:44.791Z,1.05
2023-03-27T07:56:24.679Z,0.70
2023-03-27T07:59:12.752Z,0.90
2023-03-27T08:01:43.472Z,1.25
2023-03-27T08:04:13.002Z,1.52
2023-03-27T08:06:45.454Z,1.95
2023-03-27T08:09:21.102Z,1.40
2023-03-27T08:11:51.900Z,0.80
2023-03-27T08:14:21.262Z,1.23
2023-03-27T08:16:50.546Z,1.30
2023-03-27T08:19:21.386Z,1.00
2023-03-27T08:21:55.349Z,0.88
2023-03-27T08:24:24.602Z,1.30
2023-03-27T08:27:10.829Z,0.80
2023-03-27T08:29:45.011Z,1.10
2023-03-27T08:32:15.048Z,0.90
2023-03-27T08:34:46.289Z,1.20
2023-03-27T08:37:21.306Z,1.10
2023-03-27T08:40:16.099Z,0.93
2023-03-27T08:42:48.773Z,1.33
2023-03-27T08:45:21.492Z,1.02
2023-03-27T08:47:55.821Z,1.20
2023-03-27T08:50:34.506Z,1.42
2023-03-27T08:53:16.115Z,0.65
2023-03-27T08:55:46.202Z,0.77
2023-03-27T08:58:24.765Z,0.90
2023-03-27T09:01:07.064Z,0.80
2023-03-27T09:03:41.000Z,0.80
2023-03-27T09:06:12.831Z,0.70
2023-03-27T09:08:52.269Z,1.02
2023-03-27T09:11:27.911Z,0.80
2023-03-27T09:14:07.016Z,1.00
2023-03-27T09:16:38.717Z,1.70
2023-03-27T09:19:13.164Z,0.95
2023-03-27T09:21:45.427Z,0.77
2023-03-27T09:24:24.663Z,0.70
2023-03-27T09:27:16.498Z,0.75
2023-03-27T09:30:04.838Z,0.90
2023-03-27T09:32:48.977Z,0.70
2023-03-27T09:35:20.285Z,0.82
2023-03-27T09:37:56.769Z,0.73
2023-03-27T09:40:31.370Z,0.85
2023-03-27T09:43:05.600Z,1.05
2023-03-27T09:45:41.629Z,0.75
2023-03-27T09:48:14.051Z,1.70
2023-03-27T09:50:47.110Z,0.93
2023-03-27T09:53:30.115Z,0.70
2023-03-27T09:56:14.478Z,1.35
2023-03-27T09:58:49.183Z,0.60
2023-03-27T10:01:29.558Z,0.60
2023-03-27T10:04:13.300Z,0.70
2023-03-27T10:06:45.902Z,0.77
2023-03-27T10:09:34.385Z,0.82
2023-03-27T10:12:12.916Z,0.70
2023-03-27T10:14:43.608Z,0.50
2023-03-27T10:17:24.736Z,0.70
2023-03-27T10:20:02.453Z,0.82
2023-03-27T10:22:41.327Z,0.52
2023-03-27T10:25:17.887Z,0.70
2023-03-27T10:31:00.221Z,0.93
2023-03-27T10:33:47.880Z,1.00
2023-03-27T10:36:21.769Z,0.65
2023-03-27T10:38:54.166Z,0.50
2023-03-27T10:41:32.880Z,0.95
2023-03-27T10:44:17.808Z,0.98
2023-03-27T10:46:54.161Z,0.70
2023-03-27T10:49:30.478Z,0.70
2023-03-27T10:52:04.620Z,0.50
2023-03-27T10:54:54.127Z,0.43
2023-03-27T10:57:25.384Z,1.10
2023-03-27T10:59:57.993Z,0.60
2023-03-27T11:02:34.682Z,0.65
2023-03-27T11:05:07.209Z,0.50
2023-03-27T11:07:40.788Z,0.30
2023-03-27T11:10:15.572Z,0.40
2023-03-27T11:12:48.368Z,0.30
2023-03-27T11:15:22.575Z,0.50
2023-03-27T11:17:56.692Z,0.63
2023-03-27T11:20:50.718Z,0.45
2023-03-27T11:23:30.092Z,0.40
2023-03-27T11:26:29.704Z,0.40
2023-03-27T11:29:03.369Z,0.70
2023-03-27T11:31:46.701Z,0.45
2023-03-27T11:34:29.439Z,0.40
2023-03-27T11:37:14.710Z,0.50
2023-03-27T11:40:01.050Z,0.40
2023-03-27T11:42:34.136Z,0.50
2023-03-27T11:45:09.284Z,0.40
2023-03-27T11:47:59.994Z,0.85
2023-03-27T11:50:40.926Z,0.40
2023-03-27T11:53:26.121Z,0.55
2023-03-27T11:56:35.777Z,0.20
2023-03-27T11:59:24.619Z,0.40
2023-03-27T12:02:03.276Z,0.60
2023-03-27T12:04:40.047Z,0.50
2023-03-27T12:07:47.880Z,0.57
2023-03-27T12:10:32.004Z,0.40
2023-03-27T12:13:40.585Z,0.75
2023-03-27T12:16:23.367Z,0.50
2023-03-27T12:19:10.680Z,0.43
2023-03-27T12:21:51.766Z,0.30
2023-03-27T12:24:32.974Z,0.40
2023-03-27T12:27:34.451Z,0.40
2023-03-27T12:30:41.059Z,0.40
2023-03-27T12:33:18.903Z,0.40
2023-03-27T12:35:49.427Z,0.40
2023-03-27T12:38:25.369Z,0.47
2023-03-27T12:41:03.882Z,0.40
2023-03-27T12:43:49.375Z,0.45
2023-03-27T12:46:33.650Z,0.50
2023-03-27T12:49:06.616Z,0.55
2023-03-27T12:51:48.453Z,2.55
2023-03-27T12:54:30.491Z,0.50
2023-03-27T12:57:08.429Z,0.60
2023-03-27T12:59:40.246Z,0.40
2023-03-27T13:02:26.656Z,1.20
2023-03-27T13:05:26.295Z,0.73
2023-03-27T13:08:08.292Z,0.30
2023-03-27T13:11:03.058Z,1.02
2023-03-27T13:13:45.266Z,0.50
2023-03-27T13:16:24.156Z,0.30
2023-03-27T13:19:20.670Z,1.27
2023-03-27T13:22:24.859Z,0.50
2023-03-27T13:25:04.378Z,0.40
2023-03-27T13:27:42.027Z,0.35
2023-03-27T13:30:41.372Z,0.60
2023-03-27T13:33:26.086Z,1.13
2023-03-27T13:36:05.746Z,0.75
2023-03-27T13:38:47.235Z,0.70
2023-03-27T13:41:47.290Z,0.50
2023-03-27T13:44:25.881Z,0.52
2023-03-27T13:46:58.617Z,0.50
2023-03-27T13:49:34.135Z,0.57
2023-03-27T13:52:24.667Z,0.60
2023-03-27T13:55:11.248Z,1.17
2023-03-27T13:58:13.440Z,0.43
2023-03-27T14:00:47.651Z,0.70
2023-03-27T14:03:36.742Z,0.47
2023-03-27T14:06:33.245Z,0.50
2023-03-27T14:09:07.996Z,0.60
2023-03-27T14:11:55.800Z,0.52
2023-03-27T14:15:03.792Z,0.60
2023-03-27T14:17:38.673Z,0.43
2023-03-27T14:20:21.155Z,0.50
2023-03-27T14:22:57.227Z,0.60
2023-03-27T14:25:35.202Z,0.50
2023-03-27T14:28:34.361Z,0.73
2023-03-27T14:31:08.663Z,0.50
2023-03-27T14:34:01.198Z,0.50
2023-03-27T14:36:34.215Z,0.50
2023-03-27T14:39:14.856Z,0.60
2023-03-27T14:45:28.023Z,1.75
2023-03-27T14:48:03.193Z,0.60
2023-03-27T14:50:50.133Z,0.50
2023-03-27T14:53:30.067Z,0.60
2023-03-27T14:56:25.218Z,0.60
2023-03-27T14:59:01.089Z,0.50
2023-03-27T15:01:42.515Z,0.60
2023-03-27T15:04:13.852Z,0.70
2023-03-27T15:06:45.654Z,0.52
2023-03-27T15:09:26.622Z,0.50
2023-03-27T15:12:25.993Z,0.50
2023-03-27T15:14:59.688Z,0.80
2023-03-27T15:17:32.699Z,0.60
2023-03-27T15:20:10.239Z,0.60
2023-03-27T15:22:43.095Z,0.60
2023-03-27T15:25:20.360Z,0.73
2023-03-27T15:27:55.535Z,0.60
2023-03-27T15:30:28.899Z,0.50
2023-03-27T15:33:04.592Z,1.58
2023-03-27T15:35:35.606Z,1.30
2023-03-27T15:38:05.769Z,0.68
2023-03-27T15:40:39.662Z,1.20
2023-03-27T15:43:22.272Z,0.57
2023-03-27T15:46:02.001Z,0.90
2023-03-27T15:48:35.200Z,0.50
2023-03-27T15:51:05.834Z,0.47
2023-03-27T15:53:36.160Z,1.80
2023-03-27T15:56:07.162Z,0.45
2023-03-27T15:58:46.619Z,0.80
2023-03-27T16:01:19.579Z,0.60
2023-03-27T16:03:57.309Z,0.80
2023-03-27T16:06:30.823Z,0.43
2023-03-27T16:09:01.017Z,0.60
2023-03-27T16:11:45.883Z,0.88
2023-03-27T16:14:29.638Z,0.50
2023-03-27T16:17:19.654Z,0.63
2023-03-27T16:19:53.922Z,0.50
2023-03-27T16:22:26.857Z,0.60
2023-03-27T16:24:56.480Z,0.90
2023-03-27T16:27:27.244Z,2.63
2023-03-27T16:29:56.939Z,1.10
2023-03-27T16:32:26.467Z,0.80
2023-03-27T16:34:57.841Z,0.60
2023-03-27T16:37:29.753Z,0.80
2023-03-27T16:39:59.296Z,1.10
2023-03-27T16:42:28.608Z,1.20
2023-03-27T16:44:57.759Z,0.55
2023-03-27T16:47:26.857Z,0.80
2023-03-27T16:50:10.356Z,0.65
2023-03-27T16:52:41.966Z,0.85
2023-03-27T16:55:12.995Z,0.70
2023-03-27T16:57:43.068Z,0.80
2023-03-27T17:00:13.159Z,1.02
2023-03-27T17:02:44.610Z,1.13
2023-03-27T17:05:15.704Z,0.60
2023-03-27T17:07:48.316Z,1.10
2023-03-27T17:10:17.473Z,1.75
2023-03-27T17:12:46.764Z,0.90
2023-03-27T17:15:16.778Z,0.68
2023-03-27T17:17:46.799Z,0.85
2023-03-27T17:20:16.006Z,0.70
2023-03-27T17:22:46.728Z,0.70
2023-03-27T17:25:16.014Z,0.55
2023-03-27T17:27:46.945Z,0.60
2023-03-27T17:30:26.901Z,0.90
2023-03-27T17:33:05.064Z,0.80
2023-03-27T17:35:35.562Z,0.90
2023-03-27T17:38:06.389Z,0.90
2023-03-27T17:40:35.846Z,1.13
2023-03-27T17:43:04.980Z,1.35
2023-03-27T17:45:35.015Z,1.00
2023-03-27T17:48:05.245Z,0.73
2023-03-27T17:50:39.704Z,1.17
2023-03-27T17:53:12.303Z,1.05
2023-03-27T17:55:44.715Z,2.33
2023-03-27T17:58:16.118Z,4.90
2023-03-27T18:00:46.069Z,4.07
2023-03-27T18:03:17.207Z,2.03
2023-03-27T18:05:46.953Z,4.93
2023-03-27T18:08:18.147Z,4.90
2023-03-27T18:10:49.343Z,2.47
2023-03-27T18:13:21.593Z,18.48
2023-03-27T18:15:56.867Z,11.88
2023-03-27T18:18:26.641Z,4.03
2023-03-27T18:20:56.654Z,1.92
2023-03-27T18:23:31.451Z,1.83
2023-03-27T18:26:05.816Z,2.03
2023-03-27T18:28:36.232Z,1.50
2023-03-27T18:31:08.324Z,4.85
2023-03-27T18:33:38.188Z,3.17
2023-03-27T18:36:10.543Z,9.30
2023-03-27T18:38:43.041Z,9.60
2023-03-27T18:41:12.555Z,13.82
2023-03-27T18:43:42.233Z,9.63
2023-03-27T18:46:16.700Z,5.38
2023-03-27T18:48:48.569Z,6.63
2023-03-27T18:51:18.626Z,12.20
2023-03-27T18:53:49.118Z,3.50
2023-03-27T18:56:18.618Z,2.65
2023-03-27T18:58:47.602Z,2.42
2023-03-27T19:01:16.840Z,2.78
2023-03-27T19:03:46.204Z,1.83
2023-03-27T19:06:15.350Z,3.17
2023-03-27T19:08:45.788Z,1.77
2023-03-27T19:11:16.618Z,1.88
2023-03-27T19:14:04.195Z,1.20
2023-03-27T19:16:59.392Z,1.70
2023-03-27T19:19:47.089Z,1.48
2023-03-27T19:22:24.198Z,1.80
2023-03-27T19:24:58.766Z,1.95
2023-03-27T19:27:39.161Z,1.80
2023-03-27T19:30:12.213Z,2.65
2023-03-27T19:32:42.132Z,2.92
2023-03-27T19:35:11.551Z,4.40
2023-03-27T19:37:40.632Z,5.15
2023-03-27T19:40:10.576Z,2.50
2023-03-27T19:42:41.287Z,2.00
2023-03-27T19:45:11.390Z,1.98
2023-03-27T19:47:40.698Z,2.22
2023-03-27T19:50:10.400Z,1.60
2023-03-27T19:53:05.204Z,2.72
2023-03-27T19:55:37.138Z,1.90
2023-03-27T19:58:07.798Z,1.58
2023-03-27T20:00:39.373Z,2.08
2023-03-27T20:03:10.604Z,1.52
2023-03-27T20:05:41.362Z,1.63
2023-03-27T20:08:11.529Z,2.13
2023-03-27T20:10:41.073Z,1.48
2023-03-27T20:13:12.440Z,1.95
2023-03-27T20:15:43.009Z,1.77
2023-03-27T20:18:12.413Z,2.72
2023-03-27T20:20:42.047Z,1.90
2023-03-27T20:23:12.249Z,2.45
2023-03-27T20:25:41.798Z,2.95
2023-03-27T20:28:12.600Z,2.03
2023-03-27T20:30:43.969Z,1.40
2023-03-27T20:33:13.543Z,0.95
2023-03-27T20:35:43.379Z,1.35
2023-03-27T20:38:13.286Z,1.33
2023-03-27T20:40:53.322Z,1.67
2023-03-27T20:43:31.171Z,1.10
2023-03-27T20:46:02.228Z,1.60
2023-03-27T20:48:40.128Z,1.38
2023-03-27T20:51:14.945Z,1.95
2023-03-27T20:53:44.613Z,2.95
2023-03-27T20:56:15.314Z,1.75
2023-03-27T20:58:46.832Z,2.42
2023-03-27T21:01:19.504Z,1.35
2023-03-27T21:03:49.752Z,1.30
2023-03-27T21:06:20.922Z,0.95
2023-03-27T21:08:50.731Z,2.55
2023-03-27T21:11:21.847Z,1.25
2023-03-27T21:13:53.661Z,1.20
2023-03-27T21:16:23.842Z,1.40
2023-03-27T21:18:53.421Z,1.25
2023-03-27T21:21:22.648Z,1.58
2023-03-27T21:23:53.936Z,1.45
2023-03-27T21:28:54.584Z,1.45
2023-03-27T21:31:23.809Z,0.80
2023-03-27T21:33:53.142Z,1.13
2023-03-27T21:36:22.494Z,0.95
2023-03-27T21:38:51.742Z,1.45
2023-03-27T21:41:21.549Z,0.95
2023-03-27T21:43:51.644Z,0.93
2023-03-27T21:46:22.100Z,0.75
2023-03-27T21:48:51.544Z,1.00
2023-03-27T21:51:21.158Z,1.15
2023-03-27T21:53:52.236Z,1.05
2023-03-27T21:58:51.063Z,0.80
2023-03-27T22:01:21.859Z,1.05
2023-03-27T22:03:54.887Z,0.93
2023-03-27T22:06:25.876Z,1.02
2023-03-27T22:08:55.114Z,1.13
2023-03-27T22:11:24.409Z,0.82
2023-03-27T22:13:55.167Z,1.25
2023-03-27T22:16:28.786Z,0.90
2023-03-27T22:18:57.936Z,0.97
2023-03-27T22:21:28.904Z,0.70
2023-03-27T22:23:59.209Z,0.82
2023-03-27T22:26:29.818Z,1.33
2023-03-27T22:28:59.283Z,0.55
2023-03-27T22:31:36.089Z,0.80
2023-03-27T22:34:05.543Z,0.70
2023-03-27T22:36:34.963Z,0.70
2023-03-27T22:39:04.223Z,0.73
2023-03-27T22:41:33.214Z,0.70
2023-03-27T22:44:02.560Z,0.60
2023-03-27T22:46:33.620Z,0.60
2023-03-27T22:49:02.631Z,0.95
2023-03-27T22:51:32.269Z,0.57
2023-03-27T22:54:01.636Z,0.70
2023-03-27T22:56:30.747Z,0.40
2023-03-27T22:59:00.006Z,1.00
2023-03-27T23:01:29.178Z,0.75
2023-03-27T23:03:59.621Z,0.80
2023-03-27T23:06:28.692Z,0.50
2023-03-27T23:08:57.620Z,0.63
2023-03-27T23:11:27.339Z,0.70
2023-03-27T23:13:56.275Z,0.65
2023-03-27T23:16:25.488Z,0.47
2023-03-27T23:18:56.869Z,0.68
2023-03-27T23:21:27.475Z,0.80
2023-03-27T23:23:56.930Z,0.57
2023-03-27T23:26:27.621Z,0.60
2023-03-27T23:28:56.739Z,1.50
2023-03-27T23:31:26.316Z,0.70
2023-03-27T23:34:08.090Z,0.68
2023-03-27T23:36:38.577Z,0.70
2023-03-27T23:39:07.680Z,0.88
2023-03-27T23:41:36.618Z,0.80
2023-03-27T23:44:06.326Z,0.70
2023-03-27T23:46:35.578Z,1.02
2023-03-27T23:49:05.024Z,0.50
2023-03-27T23:51:34.404Z,0.60
2023-03-27T23:54:05.038Z,0.68
2023-03-27T23:56:34.178Z,0.90
2023-03-27T23:59:03.295Z,0.60
